Burlington, Kansas
Current Conditions -  °F | °C
As of 6:53 AM on Wednesday 22 Oct 2014 (Local Time) from KEMP Reporting Station
Few Clouds Few Clouds  
Wind Chill: 51°   Ceiling: Unl
Heat Index: 51°   Visibility: 10mi
Dew Point: 48°   Wind: 5mph
Humidity: 89%   Direction: 120°ESE
Pressure: 30.13"   Gusts: NA
Location:  38.19°N, 95.74°W
Report Text: KEMP 221153Z AUTO 12004KT 10SM FEW065 11/09 A3013 RMK AO2 SLP200 T01060089 10139 20106 52013
Loading
Personal Weather Stations






























Interactive Weather Map
Tropical Storm Tracking
New forecast layout! Learn more

10-Day Weather Forecast

Advertisements
Track Severe Weather on mobile